createdAt,value
2022-12-25T20:19:17.814Z,23.1
2022-12-25T20:24:26.304Z,22.1
2022-12-25T20:29:51.034Z,21.9
2022-12-25T20:35:20.183Z,21.4
2022-12-25T20:40:46.991Z,21.2
2022-12-25T20:46:15.681Z,21.1
2022-12-25T20:51:38.366Z,21.4
2022-12-25T20:56:52.795Z,22.5
2022-12-25T21:02:07.865Z,22.8
2022-12-25T21:07:28.923Z,23.3
2022-12-25T21:12:22.818Z,23.9
2022-12-25T21:17:46.248Z,24
2022-12-25T21:22:23.309Z,23.7
2022-12-25T21:27:35.078Z,24.6
2022-12-25T21:33:01.148Z,24.2
2022-12-25T21:38:08.368Z,23.6
2022-12-25T21:43:20.963Z,24.7
2022-12-25T21:49:07.541Z,24.1
2022-12-25T21:54:21.922Z,23.7
2022-12-25T21:59:33.091Z,24.8
2022-12-25T22:04:26.816Z,24
2022-12-25T22:09:49.586Z,23.6
2022-12-25T22:15:27.211Z,24.7
2022-12-25T22:20:50.022Z,24
2022-12-25T22:25:29.243Z,23.6
2022-12-25T22:30:52.690Z,24.5
2022-12-25T22:36:17.259Z,23.4
2022-12-25T22:41:43.396Z,23.7
2022-12-25T22:47:07.235Z,24.7
2022-12-25T22:52:14.243Z,23.8
2022-12-25T22:57:29.608Z,22.8
2022-12-25T23:03:00.729Z,24.1
2022-12-25T23:08:24.083Z,23.6
2022-12-25T23:13:55.387Z,23.1
2022-12-25T23:19:02.854Z,24.4
2022-12-25T23:24:25.385Z,24.3
2022-12-25T23:29:03.475Z,23.4
2022-12-25T23:34:11.040Z,24
2022-12-25T23:39:26.197Z,24.6
2022-12-25T23:44:02.005Z,23.8
2022-12-25T23:48:53.674Z,23.5
2022-12-25T23:54:01.170Z,24.4
2022-12-25T23:59:25.954Z,24.2
